Time;durP1;ratioP1;P1;durP2;ratioP2;P2;SDS_P1;SDS_P2;PMS_P1;PMS_P2;Temp;Humidity;BMP_temperature;BMP_pressure;BME280_temperature;BME280_humidity;BME280_pressure;Samples;Min_cycle;Max_cycle;Signal;HPM_P1;HPM_P2
2023/12/05 00:01:38;;;;;;;4.72;2.30;;;;;;;2.69;96.74;95033.56;5044174;28;20686;-76
2023/12/05 00:04:05;;;;;;;0.50;0.50;;;;;;;2.83;96.59;95035.44;5046783;28;20669;-78
2023/12/05 00:06:32;;;;;;;3.05;1.73;;;;;;;2.90;96.20;95034.34;5044758;28;20214;-79
2023/12/05 00:09:00;;;;;;;2.35;1.27;;;;;;;2.90;96.46;95039.69;5042946;28;20250;-78
2023/12/05 00:11:27;;;;;;;1.48;1.30;;;;;;;2.81;96.55;95036.75;5045506;28;20210;-78
2023/12/05 00:14:04;;;;;;;3.22;1.60;;;;;;;2.74;96.76;95026.31;5047006;28;20322;-78
2023/12/05 00:16:31;;;;;;;3.35;1.45;;;;;;;2.73;96.94;95046.09;5042025;28;20233;-77
2023/12/05 00:18:59;;;;;;;3.45;2.08;;;;;;;2.71;97.32;95031.44;5046561;28;20626;-78
2023/12/05 00:21:26;;;;;;;2.03;1.63;;;;;;;2.68;97.80;95043.44;5045951;28;20227;-78
2023/12/05 00:23:52;;;;;;;6.20;2.08;;;;;;;2.74;98.14;95042.38;5042891;28;20254;-80
2023/12/05 00:26:21;;;;;;;1.63;1.15;;;;;;;2.73;98.10;95048.00;5044355;28;20617;-77
2023/12/05 00:28:47;;;;;;;2.42;1.75;;;;;;;2.71;97.99;95042.91;5045150;28;20204;-76
2023/12/05 00:31:14;;;;;;;1.50;1.40;;;;;;;2.70;98.19;95044.00;5048189;28;20620;-76
2023/12/05 00:33:41;;;;;;;0.30;0.30;;;;;;;2.76;98.03;95040.22;5041746;28;20640;-77
2023/12/05 00:36:08;;;;;;;1.90;0.98;;;;;;;2.85;97.86;95037.84;5043859;28;20219;-77
2023/12/05 00:38:35;;;;;;;3.17;2.28;;;;;;;2.69;97.97;95050.41;5046268;28;20285;-76
2023/12/05 00:41:02;;;;;;;2.78;1.52;;;;;;;2.81;98.01;95053.63;5045349;28;20616;-76
2023/12/05 00:43:30;;;;;;;2.40;1.88;;;;;;;2.72;98.11;95044.53;5043389;28;20226;-75
2023/12/05 00:45:57;;;;;;;2.25;1.75;;;;;;;2.65;98.45;95051.19;5044017;28;20200;-76
2023/12/05 00:48:24;;;;;;;4.38;2.05;;;;;;;2.64;98.73;95041.56;5046768;28;20201;-77
2023/12/05 00:50:51;;;;;;;0.20;0.20;;;;;;;2.50;98.97;95042.09;5042699;28;20717;-76
2023/12/05 00:53:17;;;;;;;3.08;2.08;;;;;;;2.41;98.86;95049.06;5045832;28;20214;-76
2023/12/05 00:55:44;;;;;;;2.55;1.52;;;;;;;2.52;98.88;95039.16;5045487;28;20222;-76
2023/12/05 00:58:11;;;;;;;2.53;1.77;;;;;;;2.63;98.37;95046.13;5040143;28;20619;-76
2023/12/05 01:00:39;;;;;;;0.30;0.30;;;;;;;2.60;98.22;95035.94;5043986;28;20231;-75
2023/12/05 01:03:06;;;;;;;2.67;1.48;;;;;;;2.67;97.82;95049.88;5045645;28;20289;-76
2023/12/05 01:05:34;;;;;;;1.92;1.27;;;;;;;2.56;97.69;95034.91;5043124;28;20609;-76
2023/12/05 01:08:00;;;;;;;3.33;1.77;;;;;;;2.46;97.56;95034.91;5042570;28;20236;-76
2023/12/05 01:10:27;;;;;;;1.48;1.30;;;;;;;2.39;97.25;95032.47;5046718;28;20516;-75
2023/12/05 01:12:54;;;;;;;0.20;0.20;;;;;;;2.50;96.95;95041.28;5046841;28;20546;-76
2023/12/05 01:15:21;;;;;;;0.28;0.28;;;;;;;2.55;96.70;95033.28;5045844;28;20584;-76
2023/12/05 01:17:49;;;;;;;0.40;0.40;;;;;;;2.66;96.29;95029.53;5040434;28;20231;-76
2023/12/05 01:20:16;;;;;;;0.20;0.20;;;;;;;2.54;96.04;95029.00;5044958;28;20552;-75
2023/12/05 01:22:43;;;;;;;0.30;0.30;;;;;;;2.52;95.86;95017.78;5046785;28;20227;-74
2023/12/05 01:25:09;;;;;;;0.50;0.50;;;;;;;2.56;95.75;95008.16;5046966;28;20597;-76
2023/12/05 01:27:36;;;;;;;0.25;0.25;;;;;;;2.55;95.44;95011.91;5048936;28;20561;-76
2023/12/05 01:30:04;;;;;;;0.30;0.30;;;;;;;2.52;95.20;95004.41;5050131;28;20207;-77
2023/12/05 01:32:31;;;;;;;1.45;1.27;;;;;;;2.35;94.86;95006.53;5046661;28;20219;-75
2023/12/05 01:34:59;;;;;;;3.58;1.75;;;;;;;2.46;94.92;95002.81;5047506;28;20200;-77
2023/12/05 01:37:26;;;;;;;1.02;0.98;;;;;;;2.29;94.48;95002.28;5049816;28;20222;-76
2023/12/05 01:39:53;;;;;;;1.92;1.75;;;;;;;2.26;94.31;94992.09;5049700;28;20207;-79
2023/12/05 01:42:20;;;;;;;1.75;1.60;;;;;;;2.38;94.28;94989.97;5046239;28;20543;-78
2023/12/05 01:44:46;;;;;;;1.98;1.65;;;;;;;2.49;93.13;95005.75;5047746;28;20257;-75
2023/12/05 01:47:16;;;;;;;0.20;0.20;;;;;;;2.57;92.70;94988.38;5049529;28;20215;-76
2023/12/05 01:49:46;;;;;;;0.20;0.20;;;;;;;2.65;92.77;94984.34;5048648;28;20211;-77
2023/12/05 01:52:14;;;;;;;1.20;1.10;;;;;;;2.40;92.00;94985.16;5046684;28;20618;-77
2023/12/05 01:54:43;;;;;;;0.20;0.20;;;;;;;2.37;92.61;94977.66;5049967;28;20196;-78
2023/12/05 01:57:10;;;;;;;2.40;1.60;;;;;;;2.46;92.35;94976.09;5049679;28;20211;-78
2023/12/05 01:59:37;;;;;;;1.55;1.42;;;;;;;2.43;92.32;94977.41;5047158;28;20234;-80
2023/12/05 02:02:05;;;;;;;2.22;1.30;;;;;;;2.43;92.03;94972.06;5046365;28;20789;-78
2023/12/05 02:04:32;;;;;;;3.20;1.90;;;;;;;2.65;91.73;94989.69;5051695;28;20595;-80
2023/12/05 02:07:04;;;;;;;2.10;1.50;;;;;;;2.71;91.22;94978.72;5046781;28;20625;-78
2023/12/05 02:09:33;;;;;;;2.25;1.65;;;;;;;2.65;91.40;94974.44;5047952;28;20200;-80
2023/12/05 02:11:59;;;;;;;2.15;1.63;;;;;;;2.45;91.32;94972.59;5045967;28;20215;-79
2023/12/05 02:14:26;;;;;;;3.38;2.13;;;;;;;2.60;91.38;94973.66;5049347;28;20219;-81
2023/12/05 02:17:06;;;;;;;2.38;1.75;;;;;;;2.56;91.60;94976.06;5046139;28;20211;-78
2023/12/05 02:19:46;;;;;;;5.45;2.30;;;;;;;2.49;92.96;94981.69;5050349;28;20212;-79
2023/12/05 02:22:27;;;;;;;0.47;0.47;;;;;;;2.52;93.54;94975.00;5049129;28;20211;-79
2023/12/05 02:25:07;;;;;;;0.20;0.20;;;;;;;2.56;93.48;94970.72;5046198;28;20203;-80
2023/12/05 02:27:39;;;;;;;0.13;0.13;;;;;;;2.66;93.72;94960.00;5046034;28;20572;-80
2023/12/05 02:30:07;;;;;;;0.68;0.68;;;;;;;2.67;94.01;94961.63;5049133;28;20323;-79
2023/12/05 02:32:34;;;;;;;0.55;0.50;;;;;;;2.52;94.24;94950.94;5044700;28;20249;-77
2023/12/05 02:35:00;;;;;;;1.00;0.65;;;;;;;2.71;93.79;94956.53;5048794;28;20213;-80
2023/12/05 02:37:33;;;;;;;0.20;0.20;;;;;;;2.60;93.99;94937.00;5046823;28;20261;-80
2023/12/05 02:40:08;;;;;;;0.20;0.20;;;;;;;2.76;93.51;94946.63;5047401;28;20541;-82
2023/12/05 02:42:35;;;;;;;0.20;0.20;;;;;;;2.61;94.10;94935.94;5044089;28;20199;-79
2023/12/05 02:45:08;;;;;;;0.38;0.38;;;;;;;2.67;94.09;94926.84;5046599;28;20287;-80
2023/12/05 02:47:37;;;;;;;1.17;1.10;;;;;;;2.52;94.23;94921.53;5050672;28;20212;-79
2023/12/05 02:50:04;;;;;;;4.28;1.88;;;;;;;2.45;94.39;94921.81;5043593;28;20267;-79
2023/12/05 02:52:31;;;;;;;2.33;1.38;;;;;;;2.48;94.43;94925.78;5046051;28;20311;-78
2023/12/05 02:54:58;;;;;;;1.00;1.00;;;;;;;2.45;94.76;94905.78;5044390;28;20208;-80
2023/12/05 02:57:25;;;;;;;0.20;0.20;;;;;;;2.55;94.35;94902.28;5045290;28;20199;-79
2023/12/05 02:59:52;;;;;;;0.88;0.88;;;;;;;2.37;94.71;94897.47;5043130;28;20227;-77
2023/12/05 03:02:20;;;;;;;0.35;0.30;;;;;;;2.47;94.37;94892.91;5031502;28;20715;-76
2023/12/05 03:04:46;;;;;;;0.30;0.30;;;;;;;2.33;94.48;94897.22;5044932;28;20214;-78
2023/12/05 03:07:13;;;;;;;0.20;0.20;;;;;;;2.47;94.72;94903.59;5044992;28;20223;-77
2023/12/05 03:09:40;;;;;;;0.75;0.75;;;;;;;2.45;94.18;94903.09;5045996;28;20196;-78
2023/12/05 03:12:07;;;;;;;0.20;0.20;;;;;;;2.71;93.40;94921.78;5045447;28;20215;-77
2023/12/05 03:14:34;;;;;;;4.70;1.98;;;;;;;2.53;93.43;94915.09;5045670;28;20288;-78
2023/12/05 03:17:01;;;;;;;0.20;0.20;;;;;;;2.80;93.39;94915.59;5044946;28;20204;-73
2023/12/05 03:19:29;;;;;;;1.38;0.93;;;;;;;2.72;92.68;94910.81;5049086;28;20227;-73
2023/12/05 03:21:56;;;;;;;1.00;1.00;;;;;;;2.52;92.90;94910.84;5049259;28;20219;-74
2023/12/05 03:24:23;;;;;;;1.20;1.10;;;;;;;2.31;93.45;94903.91;5042777;28;20608;-74
2023/12/05 03:26:50;;;;;;;0.20;0.20;;;;;;;2.26;93.49;94895.91;5046963;28;20200;-73
2023/12/05 03:29:16;;;;;;;4.30;1.80;;;;;;;2.25;93.57;94904.97;5048087;28;20211;-74
2023/12/05 03:31:43;;;;;;;0.93;0.93;;;;;;;2.20;94.19;94908.44;5048066;28;20199;-73
2023/12/05 03:34:10;;;;;;;1.58;1.33;;;;;;;2.20;93.50;94910.31;5043236;28;20270;-73
2023/12/05 03:36:39;;;;;;;0.30;0.30;;;;;;;2.03;93.88;94914.09;5046250;28;20220;-79
2023/12/05 03:39:06;;;;;;;0.20;0.20;;;;;;;1.90;93.87;94895.91;5046050;28;20231;-80
2023/12/05 03:41:32;;;;;;;0.20;0.20;;;;;;;2.04;93.69;94893.50;5042961;28;20250;-80
2023/12/05 03:43:59;;;;;;;1.88;1.15;;;;;;;2.11;93.53;94905.53;5041694;28;20215;-79
2023/12/05 03:46:26;;;;;;;0.77;0.77;;;;;;;2.11;93.23;94894.84;5042511;28;20581;-78
2023/12/05 03:48:53;;;;;;;0.20;0.20;;;;;;;2.13;93.32;94903.38;5040678;28;20234;-79
2023/12/05 03:51:19;;;;;;;0.20;0.20;;;;;;;2.09;93.13;94902.31;5043623;28;20200;-78
2023/12/05 03:53:48;;;;;;;1.58;1.02;;;;;;;2.19;93.69;94906.84;5043690;28;20204;-79
2023/12/05 03:56:14;;;;;;;0.20;0.20;;;;;;;2.26;93.36;94911.94;5046848;28;20219;-79
2023/12/05 03:58:41;;;;;;;2.42;1.33;;;;;;;2.10;93.24;94914.59;5042463;28;20617;-79
2023/12/05 04:01:08;;;;;;;0.38;0.38;;;;;;;2.05;93.35;94906.56;5044182;28;20267;-76
2023/12/05 04:03:35;;;;;;;0.35;0.35;;;;;;;2.30;92.28;94899.66;5044466;28;20210;-77
2023/12/05 04:06:02;;;;;;;0.20;0.20;;;;;;;2.43;92.37;94910.59;5046955;28;20247;-76
2023/12/05 04:08:29;;;;;;;0.20;0.20;;;;;;;2.51;92.33;94898.53;5054648;28;20623;-77
2023/12/05 04:10:57;;;;;;;0.30;0.30;;;;;;;2.49;91.73;94906.00;5049846;28;20203;-78
2023/12/05 04:13:24;;;;;;;0.30;0.30;;;;;;;2.93;100.00;94883.97;5044803;28;20261;-74
2023/12/05 04:15:50;;;;;;;0.20;0.20;;;;;;;4.51;100.00;94897.97;5043264;28;20207;-78
2023/12/05 04:18:17;;;;;;;0.20;0.20;;;;;;;3.58;96.83;94897.03;5046404;28;20204;-79
2023/12/05 04:20:44;;;;;;;0.20;0.20;;;;;;;3.41;94.88;94890.47;5045120;28;20219;-77
2023/12/05 04:23:11;;;;;;;0.25;0.25;;;;;;;3.29;93.09;94898.81;5046196;28;20340;-79
2023/12/05 04:25:38;;;;;;;0.30;0.30;;;;;;;3.30;90.82;94900.41;5049237;28;20207;-80
2023/12/05 04:28:06;;;;;;;0.20;0.20;;;;;;;3.48;91.28;94896.31;5048605;28;20218;-77
2023/12/05 04:30:33;;;;;;;0.77;0.77;;;;;;;3.54;90.43;94879.94;5041593;28;20587;-78
2023/12/05 04:32:59;;;;;;;0.20;0.20;;;;;;;3.55;89.62;94873.50;5045697;28;20226;-78
2023/12/05 04:35:26;;;;;;;1.23;0.52;;;;;;;3.54;89.46;94896.03;5047712;28;20207;-78
2023/12/05 04:37:53;;;;;;;0.40;0.40;;;;;;;3.42;88.98;94898.19;5044082;28;20211;-78
2023/12/05 04:40:20;;;;;;;0.30;0.30;;;;;;;3.28;89.09;94889.16;5045760;28;20640;-78
2023/12/05 04:42:47;;;;;;;0.20;0.20;;;;;;;3.41;89.48;94875.22;5044036;28;20707;-78
2023/12/05 04:45:15;;;;;;;0.77;0.77;;;;;;;3.47;88.31;94874.09;5045832;28;20207;-78
2023/12/05 04:47:41;;;;;;;0.20;0.20;;;;;;;3.28;88.94;94891.06;5043578;28;20257;-77
2023/12/05 04:50:10;;;;;;;0.20;0.20;;;;;;;3.52;88.33;94900.84;5042976;28;20200;-77
2023/12/05 04:52:36;;;;;;;0.20;0.20;;;;;;;3.37;88.31;94884.06;5044046;28;20224;-78
2023/12/05 04:55:04;;;;;;;0.20;0.20;;;;;;;3.61;87.83;94901.06;5042856;28;20550;-79
2023/12/05 04:57:30;;;;;;;0.20;0.20;;;;;;;3.72;87.42;94891.88;5047390;28;20648;-78
2023/12/05 04:59:57;;;;;;;0.20;0.20;;;;;;;3.83;86.88;94898.75;5042998;28;20809;-78
2023/12/05 05:02:25;;;;;;;0.20;0.20;;;;;;;3.73;87.65;94893.47;5046303;28;20244;-79
2023/12/05 05:04:52;;;;;;;0.20;0.20;;;;;;;3.49;89.13;94898.72;5047220;28;20295;-78
2023/12/05 05:07:19;;;;;;;0.20;0.20;;;;;;;3.51;89.51;94907.28;5050428;28;20196;-78
2023/12/05 05:09:46;;;;;;;0.20;0.20;;;;;;;3.42;89.28;94903.56;5045806;28;20590;-73
2023/12/05 05:12:12;;;;;;;0.28;0.28;;;;;;;3.19;90.19;94909.56;5047458;28;20196;-71
2023/12/05 05:14:39;;;;;;;0.43;0.43;;;;;;;3.15;90.83;94903.94;5050429;28;20215;-76
2023/12/05 05:17:07;;;;;;;0.20;0.20;;;;;;;2.45;94.68;94911.13;5050306;28;20242;-73
2023/12/05 05:19:35;;;;;;;0.20;0.20;;;;;;;2.67;94.50;94908.13;5053089;28;20235;-72
2023/12/05 05:22:02;;;;;;;0.30;0.30;;;;;;;2.81;94.09;94917.19;5052632;28;20635;-72
2023/12/05 05:24:29;;;;;;;0.30;0.30;;;;;;;3.01;93.61;94934.25;5053468;28;20298;-72
2023/12/05 05:26:55;;;;;;;0.20;0.20;;;;;;;3.02;93.43;94925.13;5052195;28;20219;-72
2023/12/05 05:29:22;;;;;;;0.30;0.30;;;;;;;2.97;94.03;94906.44;5052477;28;20211;-73
2023/12/05 05:31:49;;;;;;;0.13;0.13;;;;;;;2.80;95.06;94902.22;5053459;28;20631;-75
2023/12/05 05:34:16;;;;;;;0.30;0.30;;;;;;;2.83;96.03;94916.91;5053268;28;20210;-72
2023/12/05 05:36:44;;;;;;;0.40;0.40;;;;;;;3.01;95.75;94912.84;5053058;28;20301;-73
2023/12/05 05:39:11;;;;;;;0.20;0.20;;;;;;;2.87;95.06;94911.84;5052604;28;20227;-72
2023/12/05 05:41:38;;;;;;;0.20;0.20;;;;;;;2.96;95.26;94904.84;5033322;28;20212;-75
2023/12/05 05:44:05;;;;;;;0.22;0.22;;;;;;;3.01;94.98;94912.84;5046884;28;20627;-73
2023/12/05 05:46:31;;;;;;;0.30;0.30;;;;;;;3.13;94.54;94900.78;5039598;28;20584;-73
2023/12/05 05:48:58;;;;;;;0.20;0.20;;;;;;;3.27;94.10;94898.31;5052545;28;20212;-74
2023/12/05 05:51:25;;;;;;;0.63;0.32;;;;;;;3.08;93.81;94891.94;5052113;28;20207;-73
2023/12/05 05:53:55;;;;;;;0.32;0.32;;;;;;;3.08;93.34;94891.94;5051827;28;20306;-75
2023/12/05 05:56:22;;;;;;;0.20;0.20;;;;;;;3.05;93.63;94887.94;5052833;28;20229;-76
2023/12/05 05:58:49;;;;;;;0.40;0.40;;;;;;;2.55;94.46;94872.06;5053076;28;20227;-72
2023/12/05 06:01:16;;;;;;;0.60;0.60;;;;;;;2.88;95.74;94889.34;5052761;28;20381;-74
2023/12/05 06:03:44;;;;;;;0.30;0.30;;;;;;;2.57;95.84;94886.75;5052596;28;20277;-74
2023/12/05 06:06:12;;;;;;;0.45;0.45;;;;;;;2.86;95.53;94884.28;5050410;28;20584;-74
2023/12/05 06:08:39;;;;;;;0.20;0.20;;;;;;;2.58;96.06;94882.22;5047665;28;20208;-74
2023/12/05 06:11:07;;;;;;;0.40;0.40;;;;;;;2.47;96.89;94887.56;5052631;28;20203;-75
2023/12/05 06:13:34;;;;;;;0.77;0.77;;;;;;;2.57;96.54;94878.75;5039473;28;20303;-78
2023/12/05 06:16:01;;;;;;;0.20;0.20;;;;;;;2.54;96.09;94871.25;5047627;28;20564;-80
2023/12/05 06:18:28;;;;;;;0.28;0.28;;;;;;;2.51;96.25;94866.44;5041680;28;20686;-78
2023/12/05 06:20:56;;;;;;;0.70;0.70;;;;;;;2.46;96.66;94874.50;5042606;28;20231;-79
2023/12/05 06:23:23;;;;;;;0.20;0.20;;;;;;;2.35;96.94;94867.53;5049445;28;20302;-78
2023/12/05 06:25:50;;;;;;;0.22;0.22;;;;;;;2.35;96.07;94856.84;5047881;28;20204;-78
2023/12/05 06:28:18;;;;;;;0.30;0.30;;;;;;;2.64;96.28;94859.72;5049771;28;20212;-78
2023/12/05 06:30:45;;;;;;;0.65;0.65;;;;;;;2.77;96.18;94851.94;5045491;28;20582;-80
2023/12/05 06:33:12;;;;;;;5.90;2.97;;;;;;;2.94;95.68;94853.47;5040896;28;20215;-73
2023/12/05 06:35:39;;;;;;;4.15;2.70;;;;;;;3.05;95.52;94871.09;5042266;28;20615;-73
2023/12/05 06:38:05;;;;;;;3.53;2.03;;;;;;;3.21;94.15;94867.28;5049436;28;20234;-74
2023/12/05 06:40:32;;;;;;;4.18;2.17;;;;;;;2.82;94.37;94865.28;5048390;28;20224;-74
2023/12/05 06:42:59;;;;;;;2.30;1.90;;;;;;;2.27;95.79;94882.25;5038219;28;20208;-73
2023/12/05 06:45:27;;;;;;;2.70;2.08;;;;;;;2.11;96.72;94868.13;5059157;28;20208;-78
2023/12/05 06:47:54;;;;;;;3.35;1.85;;;;;;;2.29;96.29;94858.75;5070199;28;20199;-78
2023/12/05 06:50:21;;;;;;;3.42;2.28;;;;;;;2.32;94.48;94863.56;5050385;28;20212;-78
2023/12/05 06:52:49;;;;;;;0.20;0.20;;;;;;;2.17;94.96;94870.78;5059578;28;20242;-77
2023/12/05 06:55:16;;;;;;;0.20;0.20;;;;;;;2.56;95.12;94869.13;5058313;28;20198;-78
2023/12/05 06:57:43;;;;;;;0.73;0.73;;;;;;;2.94;94.36;94858.81;5065375;28;20219;-78
2023/12/05 07:00:11;;;;;;;0.40;0.40;;;;;;;3.16;92.87;94867.28;5050869;28;20238;-78
2023/12/05 07:02:39;;;;;;;0.20;0.20;;;;;;;3.49;91.79;94861.22;5059048;28;20330;-77
2023/12/05 07:05:08;;;;;;;0.38;0.38;;;;;;;3.74;90.24;94857.56;5063419;28;20610;-78
2023/12/05 07:07:35;;;;;;;0.20;0.20;;;;;;;4.07;89.17;94845.28;5062113;28;20261;-77
2023/12/05 07:10:02;;;;;;;0.20;0.20;;;;;;;4.03;87.72;94828.16;5060021;28;20230;-76
2023/12/05 07:12:29;;;;;;;3.95;1.35;;;;;;;4.33;85.91;94837.00;5061455;28;20200;-78
2023/12/05 07:14:57;;;;;;;0.55;0.55;;;;;;;3.98;86.39;94825.50;5058443;28;20211;-76
2023/12/05 07:17:23;;;;;;;0.20;0.20;;;;;;;4.04;86.31;94815.53;5051078;28;20245;-75
2023/12/05 07:19:52;;;;;;;0.20;0.20;;;;;;;4.01;86.09;94819.59;5050087;28;20289;-76
2023/12/05 07:22:19;;;;;;;0.30;0.30;;;;;;;4.07;85.28;94821.16;5050988;28;20548;-74
2023/12/05 07:24:46;;;;;;;0.55;0.55;;;;;;;4.00;85.44;94817.97;5050814;28;20218;-76
2023/12/05 07:27:13;;;;;;;0.28;0.28;;;;;;;4.04;85.71;94829.75;5058755;28;20222;-77
2023/12/05 07:29:39;;;;;;;0.57;0.57;;;;;;;3.98;84.63;94824.69;5066235;28;20207;-78
2023/12/05 07:32:06;;;;;;;0.40;0.40;;;;;;;4.20;85.32;94817.81;5054685;28;20286;-76
2023/12/05 07:34:33;;;;;;;0.20;0.20;;;;;;;4.07;85.58;94817.66;5062788;28;20223;-78
2023/12/05 07:37:02;;;;;;;0.57;0.57;;;;;;;4.38;85.25;94818.16;5066850;28;20215;-78
2023/12/05 07:39:28;;;;;;;0.50;0.50;;;;;;;3.95;85.34;94815.38;5057857;28;20559;-80
2023/12/05 07:41:55;;;;;;;0.20;0.20;;;;;;;3.72;85.48;94800.00;5052411;28;20226;-78
2023/12/05 07:44:22;;;;;;;0.22;0.22;;;;;;;3.90;86.57;94812.72;5055477;28;20208;-79
2023/12/05 07:46:49;;;;;;;1.52;1.25;;;;;;;4.22;85.78;94821.00;5051678;28;20602;-78
2023/12/05 07:49:16;;;;;;;0.63;0.63;;;;;;;4.43;85.54;94813.56;5049961;28;20219;-76
2023/12/05 07:51:43;;;;;;;0.30;0.30;;;;;;;4.86;84.54;94819.78;5035395;28;20294;-80
2023/12/05 07:54:11;;;;;;;0.43;0.43;;;;;;;5.06;82.83;94817.94;5056070;28;20211;-79
2023/12/05 07:56:38;;;;;;;0.57;0.57;;;;;;;5.05;82.59;94833.25;5051711;28;20215;-76
2023/12/05 07:59:04;;;;;;;0.30;0.30;;;;;;;4.96;83.45;94818.84;5039142;28;20553;-76
2023/12/05 08:01:32;;;;;;;0.30;0.30;;;;;;;4.91;82.61;94817.03;5040237;28;20642;-75
2023/12/05 08:04:01;;;;;;;0.20;0.20;;;;;;;4.11;84.90;94830.22;5050529;28;20208;-74
2023/12/05 08:06:28;;;;;;;0.30;0.30;;;;;;;4.12;88.16;94826.44;5051070;28;20287;-73
2023/12/05 08:08:55;;;;;;;0.20;0.20;;;;;;;4.71;90.57;94844.09;5049557;28;20298;-75
2023/12/05 08:11:23;;;;;;;0.30;0.30;;;;;;;4.83;89.88;94841.81;5050539;28;20216;-76
2023/12/05 08:13:50;;;;;;;1.30;1.27;;;;;;;4.63;85.28;94847.41;5050876;28;20212;-76
2023/12/05 08:16:17;;;;;;;0.50;0.50;;;;;;;4.44;86.12;94854.59;5050624;28;20218;-76
2023/12/05 08:18:44;;;;;;;0.55;0.55;;;;;;;4.40;85.66;94840.13;5050317;28;20615;-75
2023/12/05 08:21:10;;;;;;;0.35;0.35;;;;;;;4.71;84.91;94854.84;5050033;28;20285;-75
2023/12/05 08:23:37;;;;;;;0.22;0.22;;;;;;;4.84;84.01;94842.63;5048630;28;20222;-78
2023/12/05 08:26:05;;;;;;;0.30;0.30;;;;;;;4.91;82.39;94838.53;5049427;28;20306;-80
2023/12/05 08:28:34;;;;;;;0.50;0.50;;;;;;;4.74;82.46;94830.13;5050076;28;20306;-80
2023/12/05 08:31:01;;;;;;;0.30;0.30;;;;;;;4.47;84.24;94835.25;5050659;28;20211;-79
2023/12/05 08:33:28;;;;;;;0.70;0.70;;;;;;;5.09;82.73;94828.09;5053419;28;20211;-78
2023/12/05 08:35:54;;;;;;;0.50;0.50;;;;;;;5.47;80.93;94821.66;5054252;28;20207;-77
2023/12/05 08:38:21;;;;;;;2.83;1.77;;;;;;;5.26;81.39;94825.72;5054045;28;20296;-79
2023/12/05 08:40:48;;;;;;;0.38;0.38;;;;;;;5.70;80.55;94833.44;5054352;28;20611;-78
2023/12/05 08:43:15;;;;;;;0.20;0.20;;;;;;;5.59;79.21;94827.41;5053700;28;20271;-78
2023/12/05 08:45:43;;;;;;;0.47;0.47;;;;;;;5.89;79.12;94833.44;5053737;28;20220;-77
2023/12/05 08:48:10;;;;;;;0.68;0.68;;;;;;;6.01;79.03;94825.72;5053736;28;20231;-80
2023/12/05 08:50:37;;;;;;;1.13;1.08;;;;;;;5.98;78.38;94823.63;5053999;28;20302;-77
2023/12/05 08:53:04;;;;;;;0.32;0.32;;;;;;;5.96;78.19;94823.13;5053307;28;20294;-78
2023/12/05 08:55:31;;;;;;;0.88;0.88;;;;;;;6.27;78.13;94816.16;5053791;28;20277;-78
2023/12/05 08:57:57;;;;;;;1.13;0.68;;;;;;;6.36;78.39;94808.97;5053955;28;20220;-77
2023/12/05 09:00:25;;;;;;;0.82;0.82;;;;;;;6.50;76.65;94808.19;5054020;28;20657;-78
2023/12/05 09:02:55;;;;;;;0.30;0.30;;;;;;;6.45;76.06;94794.81;5053253;28;20331;-78
2023/12/05 09:05:23;;;;;;;0.40;0.40;;;;;;;6.72;76.79;94789.47;5053892;28;20219;-79
2023/12/05 09:07:50;;;;;;;0.20;0.20;;;;;;;7.21;74.21;94785.25;5053565;28;20215;-78
2023/12/05 09:10:16;;;;;;;0.68;0.68;;;;;;;7.37;73.52;94775.75;5053129;28;20261;-78
2023/12/05 09:12:43;;;;;;;0.50;0.50;;;;;;;6.92;72.97;94772.91;5053224;28;20226;-78
2023/12/05 09:15:10;;;;;;;0.93;0.93;;;;;;;7.39;72.50;94765.44;5053223;28;20219;-79
2023/12/05 09:17:37;;;;;;;0.30;0.30;;;;;;;7.50;71.83;94772.22;5049570;28;20262;-78
2023/12/05 09:20:06;;;;;;;0.35;0.35;;;;;;;7.13;71.63;94774.06;5049214;28;20242;-80
2023/12/05 09:22:33;;;;;;;0.30;0.30;;;;;;;7.39;72.26;94762.75;5053315;28;20207;-78
2023/12/05 09:24:59;;;;;;;0.50;0.50;;;;;;;7.31;71.83;94755.38;5053044;28;20223;-79
2023/12/05 09:27:26;;;;;;;0.40;0.40;;;;;;;6.97;72.22;94759.34;5053651;28;20598;-79
2023/12/05 09:29:53;;;;;;;0.35;0.35;;;;;;;6.15;75.06;94759.31;5053318;28;20718;-79
2023/12/05 09:32:20;;;;;;;0.20;0.20;;;;;;;5.99;75.26;94752.63;5053151;28;20215;-77
2023/12/05 09:34:47;;;;;;;6.70;0.63;;;;;;;6.09;75.70;94744.38;5052789;28;20207;-77
2023/12/05 09:37:15;;;;;;;0.35;0.35;;;;;;;6.83;74.71;94742.44;5053117;28;20212;-77
2023/12/05 09:39:42;;;;;;;0.30;0.30;;;;;;;6.71;74.60;94734.03;5052854;28;20591;-79
2023/12/05 09:42:11;;;;;;;0.30;0.30;;;;;;;7.05;72.89;94725.53;5050467;28;20227;-78
2023/12/05 09:44:41;;;;;;;0.50;0.50;;;;;;;7.37;73.57;94719.16;5052749;28;20299;-74
2023/12/05 09:47:10;;;;;;;0.63;0.63;;;;;;;7.66;72.70;94722.22;5052998;28;20218;-73
2023/12/05 09:49:40;;;;;;;0.30;0.30;;;;;;;7.99;71.03;94724.66;5052903;28;20207;-73
2023/12/05 09:52:07;;;;;;;0.30;0.30;;;;;;;8.04;70.30;94716.44;5052944;28;20203;-72
2023/12/05 09:54:37;;;;;;;0.30;0.30;;;;;;;8.16;70.17;94712.06;5053125;28;20289;-74
2023/12/05 09:57:05;;;;;;;1.02;0.65;;;;;;;7.63;69.82;94697.78;5052614;28;20568;-73
2023/12/05 09:59:32;;;;;;;0.65;0.65;;;;;;;6.81;73.60;94711.50;5052542;28;20254;-72
2023/12/05 10:02:02;;;;;;;0.20;0.20;;;;;;;6.60;74.47;94703.84;5052433;28;20243;-75
2023/12/05 10:04:30;;;;;;;0.55;0.55;;;;;;;7.23;74.46;94694.16;5053105;28;20303;-74
2023/12/05 10:06:58;;;;;;;0.40;0.40;;;;;;;7.42;72.80;94692.06;5052945;28;20684;-74
2023/12/05 10:09:27;;;;;;;0.63;0.63;;;;;;;7.66;71.48;94684.47;5052705;28;20235;-75
2023/12/05 10:11:57;;;;;;;1.45;0.65;;;;;;;7.98;70.35;94671.81;5052745;28;20211;-73
2023/12/05 10:14:24;;;;;;;0.20;0.20;;;;;;;8.50;69.31;94670.13;5052926;28;20218;-73
2023/12/05 10:16:53;;;;;;;0.43;0.43;;;;;;;8.82;69.23;94663.56;5052925;28;20230;-75
2023/12/05 10:19:21;;;;;;;2.20;0.68;;;;;;;8.23;68.22;94649.53;5052241;28;20547;-73
2023/12/05 10:21:50;;;;;;;0.60;0.60;;;;;;;8.47;70.21;94644.56;5052711;28;20243;-74
2023/12/05 10:24:17;;;;;;;1.70;0.68;;;;;;;8.19;68.75;94648.59;5052460;28;20235;-74
2023/12/05 10:26:46;;;;;;;0.30;0.30;;;;;;;7.72;71.10;94645.50;5052139;28;20298;-76
2023/12/05 10:29:15;;;;;;;1.67;0.52;;;;;;;8.08;70.68;94631.06;5051942;28;20215;-76
2023/12/05 10:31:42;;;;;;;0.32;0.32;;;;;;;8.03;69.95;94628.53;5052024;28;20221;-79
2023/12/05 10:34:13;;;;;;;0.80;0.80;;;;;;;7.94;70.13;94614.19;5051720;28;20212;-78
2023/12/05 10:36:40;;;;;;;0.35;0.30;;;;;;;8.22;69.97;94615.56;5052241;28;20527;-79
2023/12/05 10:39:07;;;;;;;0.82;0.82;;;;;;;8.59;69.09;94619.69;5051553;28;20563;-79
2023/12/05 10:41:35;;;;;;;0.40;0.40;;;;;;;8.36;69.73;94616.28;5051850;28;20285;-78
2023/12/05 10:44:02;;;;;;;0.68;0.68;;;;;;;8.70;69.15;94604.75;5047568;28;20218;-78
2023/12/05 10:46:35;;;;;;;0.65;0.65;;;;;;;8.59;68.80;94597.28;5046864;28;20568;-79
2023/12/05 10:49:05;;;;;;;0.20;0.20;;;;;;;8.35;69.01;94589.59;5051546;28;20611;-78
2023/12/05 10:51:32;;;;;;;1.45;1.08;;;;;;;8.42;69.11;94588.03;5051457;28;20742;-79
2023/12/05 10:54:00;;;;;;;0.20;0.20;;;;;;;8.39;68.85;94583.25;5050846;28;20273;-79
2023/12/05 10:56:28;;;;;;;0.52;0.52;;;;;;;7.66;71.82;94586.63;5051040;28;20212;-79
2023/12/05 10:58:58;;;;;;;0.20;0.20;;;;;;;6.93;73.81;94583.34;5040316;28;20208;-78
2023/12/05 11:01:27;;;;;;;0.50;0.50;;;;;;;7.50;73.98;94572.78;5051023;28;20246;-80
2023/12/05 11:04:00;;;;;;;3.00;1.75;;;;;;;7.98;73.20;94564.72;5044154;28;20242;-78
2023/12/05 11:06:27;;;;;;;0.20;0.20;;;;;;;8.18;71.18;94583.03;5051012;28;20208;-79
2023/12/05 11:08:54;;;;;;;0.32;0.32;;;;;;;7.30;72.74;94579.47;5050778;28;20215;-77
2023/12/05 11:11:22;;;;;;;0.85;0.65;;;;;;;7.17;73.72;94584.91;5043256;28;20576;-76
2023/12/05 11:13:49;;;;;;;0.25;0.25;;;;;;;7.58;72.86;94580.09;5051135;28;20553;-78
2023/12/05 11:16:25;;;;;;;0.20;0.20;;;;;;;7.54;72.58;94562.16;5050580;28;20203;-76
2023/12/05 11:19:03;;;;;;;2.35;1.55;;;;;;;7.56;72.63;94566.13;5047179;28;20220;-76
2023/12/05 11:21:46;;;;;;;0.43;0.43;;;;;;;7.47;73.08;94557.22;5048520;28;20695;-78
2023/12/05 11:24:31;;;;;;;0.30;0.30;;;;;;;7.70;72.03;94545.25;5050376;28;20678;-77
2023/12/05 11:27:33;;;;;;;0.30;0.30;;;;;;;8.22;70.13;94545.41;5050521;28;20580;-75
2023/12/05 11:30:36;;;;;;;2.35;1.20;;;;;;;7.81;71.71;94543.88;5049918;28;20297;-78
2023/12/05 11:33:14;;;;;;;0.70;0.70;;;;;;;7.77;72.22;94542.94;5047806;28;20219;-75
2023/12/05 11:35:54;;;;;;;0.50;0.50;;;;;;;8.16;71.47;94552.09;5049250;28;20199;-75
2023/12/05 11:38:22;;;;;;;0.43;0.43;;;;;;;8.01;70.46;94547.13;5050008;28;20199;-74
2023/12/05 11:41:14;;;;;;;0.22;0.22;;;;;;;7.59;72.02;94553.94;5045157;28;20242;-74
2023/12/05 11:43:42;;;;;;;0.22;0.22;;;;;;;7.46;73.21;94553.72;5048849;28;20257;-76
2023/12/05 11:46:10;;;;;;;0.50;0.50;;;;;;;7.79;72.97;94554.16;5050391;28;20208;-75